Time;durP1;ratioP1;P1;durP2;ratioP2;P2;SDS_P1;SDS_P2;PMS_P1;PMS_P2;Temp;Humidity;BMP_temperature;BMP_pressure;BME280_temperature;BME280_humidity;BME280_pressure;Samples;Min_cycle;Max_cycle;Signal;HPM_P1;HPM_P2
2022/04/04 00:01:37;;;;;;;6.20;1.88;;;;;;;3.19;100.00;101310.28;10167900;28;20092;-67
2022/04/04 00:06:36;;;;;;;5.80;1.95;;;;;;;3.26;100.00;101300.09;10165081;28;20137;-69
2022/04/04 00:11:32;;;;;;;3.72;1.52;;;;;;;3.22;100.00;101288.16;10172665;28;20583;-69
2022/04/04 00:16:29;;;;;;;12.57;2.20;;;;;;;3.06;100.00;101285.25;10158387;28;20119;-66
2022/04/04 00:21:25;;;;;;;11.88;1.90;;;;;;;3.11;100.00;101277.25;10164228;28;20045;-66
2022/04/04 00:26:22;;;;;;;4.63;1.67;;;;;;;3.07;100.00;101284.22;10179155;28;20070;-66
2022/04/04 00:31:18;;;;;;;7.28;1.98;;;;;;;3.08;100.00;101261.50;10172438;28;20077;-65
2022/04/04 00:36:15;;;;;;;5.45;1.85;;;;;;;3.14;100.00;101257.00;10172023;28;20034;-68
2022/04/04 00:41:13;;;;;;;4.47;1.65;;;;;;;3.17;100.00;101243.78;10173446;28;20580;-66
2022/04/04 00:46:10;;;;;;;10.13;3.08;;;;;;;3.17;100.00;101232.97;10175319;28;20108;-65
2022/04/04 00:51:07;;;;;;;6.57;2.00;;;;;;;3.06;100.00;101231.22;10179887;28;20130;-65
2022/04/04 00:56:03;;;;;;;5.97;1.98;;;;;;;3.10;100.00;101218.84;10182173;28;20054;-66
2022/04/04 01:01:00;;;;;;;9.52;2.35;;;;;;;3.11;100.00;101207.00;10177371;28;20057;-69
2022/04/04 01:05:58;;;;;;;7.70;2.85;;;;;;;3.06;100.00;101204.22;11245470;23;20046;-65
2022/04/04 01:10:54;;;;;;;6.82;2.17;;;;;;;2.93;100.00;101196.53;10217589;28;20087;-65
2022/04/04 01:15:51;;;;;;;6.10;2.47;;;;;;;2.95;100.00;101194.41;10219312;28;20104;-63
2022/04/04 01:20:48;;;;;;;9.45;2.30;;;;;;;3.04;100.00;101178.53;10213213;28;20049;-65
2022/04/04 01:25:44;;;;;;;6.28;2.20;;;;;;;2.95;100.00;101179.00;10214406;28;20108;-67
2022/04/04 01:30:41;;;;;;;14.55;3.03;;;;;;;2.95;100.00;101165.50;10214611;28;20145;-64
2022/04/04 01:35:38;;;;;;;6.47;3.10;;;;;;;2.81;100.00;101153.47;10219739;28;20046;-66
2022/04/04 01:40:34;;;;;;;5.70;2.58;;;;;;;2.84;100.00;101163.75;10222438;28;20495;-65
2022/04/04 01:50:46;;;;;;;5.10;2.50;;;;;;;2.72;100.00;101128.81;10221793;28;20049;-65
2022/04/04 01:55:42;;;;;;;6.25;2.70;;;;;;;2.73;100.00;101122.34;10212803;28;20531;-66
2022/04/04 02:00:39;;;;;;;8.40;2.97;;;;;;;2.68;100.00;101111.50;10207357;28;20053;-65
2022/04/04 02:05:36;;;;;;;6.38;2.92;;;;;;;2.63;100.00;101092.53;10216162;28;20606;-66
2022/04/04 02:10:33;;;;;;;6.38;3.60;;;;;;;2.60;100.00;101093.06;10213894;28;20050;-64
2022/04/04 02:15:29;;;;;;;9.88;2.90;;;;;;;2.50;100.00;101082.16;10222036;28;20605;-63
2022/04/04 02:20:26;;;;;;;7.90;3.17;;;;;;;2.56;100.00;101059.53;10218887;28;20129;-64
2022/04/04 02:25:22;;;;;;;5.07;2.60;;;;;;;2.52;100.00;101059.22;10215149;28;20177;-64
2022/04/04 02:30:19;;;;;;;12.07;3.90;;;;;;;2.49;100.00;101040.03;10209841;28;20128;-63
2022/04/04 02:35:15;;;;;;;7.32;3.17;;;;;;;2.44;100.00;101040.00;10213922;28;20077;-64
2022/04/04 02:40:12;;;;;;;7.70;3.30;;;;;;;2.45;100.00;101026.22;10218781;28;20045;-66
2022/04/04 02:45:08;;;;;;;5.97;3.58;;;;;;;2.40;100.00;101017.28;10221041;28;20491;-66
2022/04/04 02:50:05;;;;;;;5.82;3.15;;;;;;;2.40;100.00;101007.31;10209532;28;20570;-63
2022/04/04 03:00:19;;;;;;;8.85;3.28;;;;;;;2.29;100.00;100984.00;10211083;28;20092;-67
2022/04/04 03:05:15;;;;;;;5.28;2.78;;;;;;;2.30;100.00;100981.03;10207163;28;20050;-63
2022/04/04 03:10:13;;;;;;;9.80;3.92;;;;;;;2.31;100.00;100966.47;10214997;28;20088;-63
2022/04/04 03:15:22;;;;;;;6.55;3.10;;;;;;;2.34;100.00;100953.53;10218946;28;20050;-65
2022/04/04 03:20:21;;;;;;;6.60;3.20;;;;;;;2.35;100.00;100944.38;10213382;28;20050;-64
2022/04/04 03:25:17;;;;;;;5.32;2.75;;;;;;;2.33;100.00;100946.53;10209978;28;20673;-64
2022/04/04 03:30:20;;;;;;;5.15;2.40;;;;;;;2.23;100.00;100942.66;10206226;28;20085;-65
2022/04/04 03:35:17;;;;;;;9.88;3.03;;;;;;;2.33;100.00;100911.44;10207205;28;20038;-63
2022/04/04 03:40:16;;;;;;;6.32;3.20;;;;;;;2.38;100.00;100919.56;10226952;28;20045;-62
2022/04/04 03:45:14;;;;;;;6.72;3.65;;;;;;;2.36;100.00;100886.63;10230845;28;20075;-63
2022/04/04 03:50:13;;;;;;;5.40;2.88;;;;;;;2.49;100.00;100878.09;10210945;28;20057;-65
2022/04/04 03:55:11;;;;;;;7.13;3.15;;;;;;;2.50;100.00;100866.22;10222035;28;20112;-65
2022/04/04 04:00:09;;;;;;;5.88;2.65;;;;;;;2.47;100.00;100856.75;10213958;28;20057;-66
2022/04/04 04:05:07;;;;;;;11.32;3.65;;;;;;;2.54;100.00;100851.13;10217206;28;20132;-66
2022/04/04 04:10:05;;;;;;;8.15;3.28;;;;;;;2.49;100.00;100833.03;10223297;28;20045;-66
2022/04/04 04:15:01;;;;;;;10.27;3.40;;;;;;;2.54;100.00;100805.25;10230684;28;20099;-66
2022/04/04 04:25:14;;;;;;;5.38;2.65;;;;;;;2.59;100.00;100778.28;10214513;28;20129;-65
2022/04/04 04:30:13;;;;;;;7.22;2.67;;;;;;;2.65;100.00;100774.53;10226151;28;20049;-65
2022/04/04 04:35:11;;;;;;;6.97;3.13;;;;;;;2.77;100.00;100760.00;10220097;28;20077;-64
2022/04/04 04:40:08;;;;;;;7.63;3.35;;;;;;;2.73;100.00;100752.41;10233027;28;20056;-65
2022/04/04 04:45:05;;;;;;;7.72;3.17;;;;;;;2.80;100.00;100735.16;10226424;28;20073;-65
2022/04/04 04:50:03;;;;;;;7.07;2.92;;;;;;;2.74;100.00;100731.66;10229932;28;20088;-65
2022/04/04 04:55:01;;;;;;;7.38;3.05;;;;;;;2.78;100.00;100705.72;10212400;28;20112;-64
2022/04/04 04:59:58;;;;;;;9.68;3.95;;;;;;;2.78;100.00;100677.91;10207425;28;20491;-64
2022/04/04 05:04:54;;;;;;;6.72;3.72;;;;;;;2.81;100.00;100680.06;10212392;28;20660;-63
2022/04/04 05:09:50;;;;;;;9.02;3.45;;;;;;;2.85;100.00;100667.66;10135275;28;20531;-64
2022/04/04 05:14:48;;;;;;;8.45;3.97;;;;;;;2.92;100.00;100668.22;10201723;28;20073;-65
2022/04/04 05:19:45;;;;;;;8.88;3.50;;;;;;;2.94;100.00;100649.84;10202200;28;20080;-64
2022/04/04 05:24:41;;;;;;;9.05;4.80;;;;;;;3.00;100.00;100629.88;10210633;28;20045;-65
2022/04/04 05:29:38;;;;;;;7.78;4.78;;;;;;;3.06;100.00;100636.88;10222047;28;20049;-66
2022/04/04 05:34:34;;;;;;;10.30;4.78;;;;;;;3.10;100.00;100632.56;10211970;28;20522;-66
2022/04/04 05:39:31;;;;;;;9.60;5.32;;;;;;;3.19;100.00;100618.53;10205643;28;20639;-66
2022/04/04 05:44:28;;;;;;;11.63;6.38;;;;;;;3.18;100.00;100612.34;10206649;28;20053;-66
2022/04/04 05:49:26;;;;;;;12.70;6.07;;;;;;;3.27;100.00;100607.16;10211367;28;20049;-66
2022/04/04 05:54:27;;;;;;;10.70;6.10;;;;;;;3.29;100.00;100602.31;10203182;28;20060;-66
2022/04/04 05:59:24;;;;;;;11.95;6.53;;;;;;;3.34;100.00;100572.56;10204639;28;20622;-66
2022/04/04 06:04:21;;;;;;;13.27;7.53;;;;;;;3.37;100.00;100580.16;10210038;28;20139;-66
2022/04/04 06:09:17;;;;;;;11.98;7.35;;;;;;;3.33;100.00;100566.34;10220508;28;20104;-65
2022/04/04 06:14:14;;;;;;;13.77;7.72;;;;;;;3.21;100.00;100556.94;10209249;28;20053;-66
2022/04/04 06:19:11;;;;;;;11.95;7.78;;;;;;;3.13;100.00;100578.03;10230917;28;20077;-66
2022/04/04 06:24:07;;;;;;;14.35;9.30;;;;;;;3.05;100.00;100559.63;10230732;28;20095;-66
2022/04/04 06:29:04;;;;;;;15.68;10.60;;;;;;;2.94;100.00;100533.72;10230562;28;20112;-66
2022/04/04 06:34:00;;;;;;;16.27;10.05;;;;;;;2.92;100.00;100508.88;10231588;28;20480;-66
2022/04/04 06:38:58;;;;;;;17.77;10.80;;;;;;;2.86;100.00;100523.47;10217807;28;20531;-66
2022/04/04 06:43:54;;;;;;;16.77;10.25;;;;;;;2.76;100.00;100507.25;10230513;28;20575;-66
2022/04/04 06:48:51;;;;;;;14.70;10.38;;;;;;;2.78;100.00;100489.72;10228262;28;20049;-66
2022/04/04 06:53:47;;;;;;;17.38;11.82;;;;;;;2.66;100.00;100495.38;10229485;28;20491;-65
2022/04/04 06:58:44;;;;;;;16.75;11.60;;;;;;;2.79;100.00;100471.63;10227840;28;20133;-66
2022/04/04 07:03:40;;;;;;;21.67;13.07;;;;;;;2.76;100.00;100461.38;10225695;28;20042;-65
2022/04/04 07:08:37;;;;;;;19.48;13.13;;;;;;;2.74;100.00;100457.06;10220376;28;20056;-65
2022/04/04 07:13:34;;;;;;;22.95;13.48;;;;;;;2.71;100.00;100435.97;10199545;28;20048;-65
2022/04/04 07:18:31;;;;;;;16.50;9.88;;;;;;;2.69;100.00;100446.28;10202967;28;20471;-65
2022/04/04 07:23:27;;;;;;;19.55;13.02;;;;;;;2.68;100.00;100424.94;10202753;28;20074;-66
2022/04/04 07:28:24;;;;;;;19.33;12.57;;;;;;;2.62;100.00;100399.84;10209404;28;20095;-65
2022/04/04 07:33:21;;;;;;;21.00;13.85;;;;;;;2.57;100.00;100397.13;10199698;28;20115;-66
2022/04/04 07:38:18;;;;;;;22.75;15.10;;;;;;;2.62;100.00;100382.81;10197282;28;20045;-65
2022/04/04 07:43:14;;;;;;;19.02;13.32;;;;;;;2.46;100.00;100382.03;10224725;28;20073;-65
2022/04/04 07:48:11;;;;;;;20.02;14.50;;;;;;;2.63;100.00;100347.47;10226294;28;20042;-65
2022/04/04 07:53:07;;;;;;;18.13;11.15;;;;;;;2.55;100.00;100318.31;10216940;28;20575;-66
2022/04/04 07:58:04;;;;;;;18.35;11.40;;;;;;;2.51;100.00;100301.09;10228738;28;20042;-67
2022/04/04 08:03:02;;;;;;;18.88;12.40;;;;;;;2.51;100.00;100290.28;10213726;28;20792;-66
2022/04/04 08:07:59;;;;;;;19.77;14.20;;;;;;;2.54;100.00;100273.53;10225815;28;20058;-66
2022/04/04 08:12:55;;;;;;;21.15;13.88;;;;;;;2.62;100.00;100258.66;10227554;28;20089;-65
2022/04/04 08:17:52;;;;;;;20.77;14.90;;;;;;;2.52;100.00;100248.72;10227017;28;20118;-66
2022/04/04 08:22:49;;;;;;;16.65;11.45;;;;;;;2.42;100.00;100229.88;10207753;28;20471;-66
2022/04/04 08:27:45;;;;;;;21.65;15.80;;;;;;;2.50;100.00;100210.41;10218816;28;20388;-66
2022/04/04 08:32:43;;;;;;;19.02;14.65;;;;;;;2.51;100.00;100206.63;10219643;28;20084;-66
2022/04/04 08:37:41;;;;;;;15.82;11.98;;;;;;;2.45;100.00;100186.13;10223435;28;20043;-66
2022/04/04 08:42:38;;;;;;;19.90;12.25;;;;;;;2.39;100.00;100189.94;10228567;28;20058;-67
2022/04/04 08:47:35;;;;;;;20.25;14.35;;;;;;;2.37;100.00;100165.13;10228823;28;20054;-66
2022/04/04 08:52:32;;;;;;;20.92;14.85;;;;;;;2.45;100.00;100140.25;10236191;28;20123;-66
2022/04/04 08:57:28;;;;;;;17.13;11.77;;;;;;;2.43;100.00;100147.81;10232254;28;20478;-66
2022/04/04 09:02:25;;;;;;;16.77;12.30;;;;;;;2.43;100.00;100118.16;10235330;28;20095;-67
2022/04/04 09:07:21;;;;;;;18.42;13.55;;;;;;;2.49;100.00;100081.97;10222841;28;20045;-66
2022/04/04 09:12:23;;;;;;;15.48;11.30;;;;;;;2.51;100.00;100122.97;10230862;28;20045;-66
2022/04/04 09:17:27;;;;;;;15.45;10.80;;;;;;;2.60;100.00;100074.59;10230118;28;20095;-66
2022/04/04 09:22:24;;;;;;;15.13;9.52;;;;;;;2.63;100.00;100066.75;10231631;28;20124;-66
2022/04/04 09:27:27;;;;;;;12.80;9.20;;;;;;;2.66;100.00;100033.78;10228071;28;20072;-66
2022/04/04 09:32:41;;;;;;;14.35;8.98;;;;;;;2.67;100.00;100030.03;10223488;28;20679;-66
2022/04/04 09:37:40;;;;;;;15.45;9.98;;;;;;;2.71;100.00;100030.25;10225707;28;20045;-66
2022/04/04 09:42:37;;;;;;;12.77;8.75;;;;;;;2.64;100.00;100025.16;10207557;28;20538;-67
2022/04/04 09:47:49;;;;;;;13.48;10.07;;;;;;;2.68;100.00;100042.41;10201867;28;20061;-68
2022/04/04 09:52:52;;;;;;;14.93;10.73;;;;;;;2.71;100.00;99997.84;10201128;28;20046;-67
2022/04/04 09:57:50;;;;;;;14.68;8.98;;;;;;;2.67;100.00;100019.22;10198937;28;20057;-67
2022/04/04 10:02:47;;;;;;;15.18;10.45;;;;;;;2.71;100.00;99976.25;10200591;28;20165;-67
2022/04/04 10:07:44;;;;;;;14.05;10.60;;;;;;;2.69;100.00;99936.06;10206351;28;20042;-65
2022/04/04 10:12:43;;;;;;;17.55;10.57;;;;;;;2.74;100.00;99944.13;10206865;28;20049;-66
2022/04/04 10:17:40;;;;;;;13.43;9.63;;;;;;;2.67;100.00;99922.06;10229196;28;20049;-66
2022/04/04 10:22:36;;;;;;;16.30;10.02;;;;;;;2.65;100.00;99936.91;10205973;28;20088;-66
2022/04/04 10:27:37;;;;;;;14.60;10.00;;;;;;;2.63;100.00;99948.00;10202934;28;20107;-65
2022/04/04 10:32:48;;;;;;;14.38;9.75;;;;;;;2.61;100.00;99906.19;10204359;28;20056;-65
2022/04/04 10:37:45;;;;;;;18.08;11.60;;;;;;;2.67;100.00;99878.88;10212879;28;20156;-65
2022/04/04 10:42:43;;;;;;;14.20;10.32;;;;;;;2.74;100.00;99863.13;10209971;28;20072;-66
2022/04/04 10:47:44;;;;;;;14.45;10.23;;;;;;;2.79;100.00;99820.97;10204967;28;20042;-66
2022/04/04 10:52:43;;;;;;;15.82;10.18;;;;;;;2.80;100.00;99849.56;10216094;28;20049;-66
2022/04/04 10:57:42;;;;;;;11.43;8.45;;;;;;;2.79;100.00;99827.19;10216410;28;20170;-66
2022/04/04 11:02:39;;;;;;;16.98;11.63;;;;;;;2.87;100.00;99828.44;10222173;28;20458;-69
2022/04/04 11:07:39;;;;;;;15.45;11.23;;;;;;;2.97;100.00;99806.72;10224407;28;20045;-68
2022/04/04 11:13:02;;;;;;;11.80;9.23;;;;;;;3.01;100.00;99815.81;10224758;28;20041;-68
2022/04/04 11:18:00;;;;;;;;;;;;;;;3.15;100.00;99803.22;10222232;28;20049;-68
2022/04/04 11:22:59;;;;;;;15.48;10.35;;;;;;;3.10;100.00;99797.88;10218329;28;19971;-68
2022/04/04 11:27:57;;;;;;;17.30;10.07;;;;;;;3.20;100.00;99817.75;10227730;28;20095;-68
2022/04/04 11:32:57;;;;;;;11.95;7.47;;;;;;;3.15;100.00;99781.59;10225623;28;20080;-68
2022/04/04 11:37:59;;;;;;;12.32;9.25;;;;;;;3.24;100.00;99740.44;10228819;28;20424;-68
2022/04/04 11:42:57;;;;;;;11.77;8.73;;;;;;;3.23;100.00;99755.06;10225354;28;20050;-67
2022/04/04 11:48:24;;;;;;;14.45;10.35;;;;;;;3.29;100.00;99765.47;10203962;28;20152;-68
2022/04/04 11:53:25;;;;;;;13.18;10.00;;;;;;;3.31;100.00;99746.28;10224883;28;20049;-68
2022/04/04 11:58:25;;;;;;;13.60;10.63;;;;;;;3.28;100.00;99742.25;10227287;28;20126;-68
2022/04/04 12:03:23;;;;;;;13.00;10.57;;;;;;;3.30;100.00;99712.25;10223460;28;20128;-68
2022/04/04 12:08:26;;;;;;;14.82;10.43;;;;;;;3.33;100.00;99706.25;10225870;28;20044;-68
2022/04/04 12:13:23;;;;;;;15.30;11.27;;;;;;;3.37;100.00;99685.66;10224580;28;20046;-68
2022/04/04 12:18:26;;;;;;;14.32;9.27;;;;;;;3.40;100.00;99679.66;10227866;28;20056;-68
2022/04/04 12:29:03;;;;;;;14.02;8.30;;;;;;;3.47;100.00;99666.56;10233076;28;20128;-68
2022/04/04 12:34:02;;;;;;;14.43;11.35;;;;;;;3.52;100.00;99665.69;10231957;28;20057;-68
2022/04/04 12:38:59;;;;;;;12.93;9.00;;;;;;;3.56;100.00;99618.84;10233172;28;20081;-69
2022/04/04 12:44:02;;;;;;;15.43;12.18;;;;;;;3.65;100.00;99615.47;10235200;28;20042;-69
2022/04/04 12:49:21;;;;;;;13.37;10.40;;;;;;;3.59;100.00;99615.53;10222877;28;20041;-68
2022/04/04 12:54:26;;;;;;;14.80;10.98;;;;;;;3.67;100.00;99591.66;10207563;28;20037;-67
2022/04/04 12:59:25;;;;;;;14.77;11.70;;;;;;;3.73;100.00;99574.22;10199608;28;20038;-67
2022/04/04 13:04:23;;;;;;;15.40;10.18;;;;;;;3.82;100.00;99577.81;10191761;28;20065;-68
2022/04/04 13:09:24;;;;;;;13.00;10.40;;;;;;;3.90;100.00;99604.19;10211854;28;20077;-65
2022/04/04 13:14:22;;;;;;;14.52;8.60;;;;;;;3.88;100.00;99560.41;10205625;28;20137;-66
2022/04/04 13:19:20;;;;;;;12.63;10.05;;;;;;;3.96;100.00;99559.69;10214402;28;20073;-66
2022/04/04 13:24:17;;;;;;;12.07;9.93;;;;;;;3.99;100.00;99572.63;10211298;28;20057;-66
2022/04/04 13:29:15;;;;;;;12.13;8.13;;;;;;;4.06;100.00;99571.41;10218493;28;20038;-66
2022/04/04 13:34:12;;;;;;;12.45;7.53;;;;;;;4.08;100.00;99555.66;10212635;28;20115;-67
2022/04/04 13:39:11;;;;;;;9.00;7.15;;;;;;;4.17;100.00;99545.72;10206867;28;20041;-66
2022/04/04 13:44:08;;;;;;;12.05;9.82;;;;;;;4.26;100.00;99557.44;10213984;28;21686;-66
2022/04/04 13:49:05;;;;;;;9.55;6.50;;;;;;;4.22;100.00;99542.91;10213171;28;20128;-66
2022/04/04 13:54:02;;;;;;;9.73;6.93;;;;;;;4.27;100.00;99542.81;10205948;28;20141;-65
2022/04/04 13:59:00;;;;;;;12.80;9.63;;;;;;;4.38;100.00;99557.69;10211089;28;20042;-66
2022/04/04 14:03:56;;;;;;;9.80;7.65;;;;;;;4.37;100.00;99580.47;10219365;28;20135;-65
2022/04/04 14:08:53;;;;;;;14.60;11.23;;;;;;;4.42;100.00;99542.47;10204355;28;20038;-66
2022/04/04 14:13:50;;;;;;;12.10;9.95;;;;;;;4.43;100.00;99557.63;10210381;28;20087;-67
2022/04/04 14:18:47;;;;;;;11.65;8.90;;;;;;;4.49;100.00;99565.63;10212144;28;20448;-66
2022/04/04 14:23:44;;;;;;;11.88;9.38;;;;;;;4.55;100.00;99559.78;10215704;28;20069;-65
2022/04/04 14:28:41;;;;;;;10.98;8.05;;;;;;;4.60;100.00;99553.44;10215322;28;20129;-66
2022/04/04 14:33:38;;;;;;;9.70;6.88;;;;;;;4.63;100.00;99537.38;10214033;28;20103;-66
2022/04/04 14:38:37;;;;;;;10.85;8.63;;;;;;;4.70;100.00;99547.78;10223052;28;20049;-67
2022/04/04 14:43:34;;;;;;;11.68;9.00;;;;;;;4.75;100.00;99517.88;10211180;28;20100;-66
2022/04/04 14:48:30;;;;;;;12.30;9.60;;;;;;;4.76;100.00;99508.66;10223298;28;20701;-67
2022/04/04 14:53:27;;;;;;;14.85;10.45;;;;;;;4.85;100.00;99495.97;10216671;28;20056;-67
2022/04/04 14:58:34;;;;;;;14.38;10.30;;;;;;;4.91;100.00;99487.72;10225870;28;20108;-67
2022/04/04 15:03:32;;;;;;;13.85;9.30;;;;;;;4.97;100.00;99483.78;10221322;28;20045;-68
2022/04/04 15:08:28;;;;;;;12.40;9.65;;;;;;;5.01;100.00;99484.72;10212534;28;20197;-66
2022/04/04 15:13:25;;;;;;;11.60;9.00;;;;;;;5.02;100.00;99489.06;10204605;28;20046;-67
2022/04/04 15:18:21;;;;;;;11.98;9.25;;;;;;;5.11;100.00;99476.34;10203942;28;20470;-67
2022/04/04 15:23:18;;;;;;;11.02;9.00;;;;;;;5.16;100.00;99451.81;10203119;28;20050;-68
2022/04/04 15:28:15;;;;;;;9.40;7.13;;;;;;;5.20;100.00;99452.81;10203182;28;20064;-68
2022/04/04 15:33:12;;;;;;;9.77;7.97;;;;;;;5.28;100.00;99446.59;10202898;28;20045;-66
2022/04/04 15:38:09;;;;;;;10.30;7.72;;;;;;;5.35;100.00;99448.06;10210133;28;20080;-67
2022/04/04 15:43:06;;;;;;;7.90;5.07;;;;;;;5.35;100.00;99448.06;10226837;28;20037;-67
2022/04/04 15:48:02;;;;;;;7.28;4.93;;;;;;;5.38;100.00;99458.28;10227899;28;20038;-65
2022/04/04 15:53:05;;;;;;;5.53;3.83;;;;;;;5.42;100.00;99459.25;10222720;28;20068;-66
2022/04/04 15:58:03;;;;;;;6.10;3.28;;;;;;;5.48;100.00;99458.00;10222598;28;20099;-63
2022/04/04 16:02:59;;;;;;;4.13;2.70;;;;;;;5.47;100.00;99461.81;10221138;28;20085;-64
2022/04/04 16:07:56;;;;;;;4.50;2.88;;;;;;;5.51;100.00;99451.94;10219622;28;20082;-64
2022/04/04 16:12:52;;;;;;;7.30;2.83;;;;;;;5.57;100.00;99450.69;10225491;28;20132;-63
2022/04/04 16:17:48;;;;;;;5.20;3.20;;;;;;;5.61;100.00;99464.41;10209282;28;20523;-63
2022/04/04 16:22:45;;;;;;;4.93;3.03;;;;;;;5.65;100.00;99463.47;10210333;28;20077;-67
2022/04/04 16:27:42;;;;;;;3.90;2.53;;;;;;;5.74;100.00;99457.28;10209719;28;20109;-66
2022/04/04 16:32:38;;;;;;;5.38;3.20;;;;;;;5.79;100.00;99457.13;10204103;28;20145;-65
2022/04/04 16:37:39;;;;;;;8.50;4.18;;;;;;;5.86;100.00;99457.44;10203125;28;20466;-64
2022/04/04 16:42:36;;;;;;;7.88;5.70;;;;;;;5.93;100.00;99468.63;10207366;28;20135;-66
2022/04/04 16:47:33;;;;;;;7.88;3.50;;;;;;;6.06;100.00;99484.00;10206891;28;20401;-66
2022/04/04 16:52:31;;;;;;;7.97;3.17;;;;;;;6.19;100.00;99505.88;10194877;28;20472;-67
2022/04/04 16:57:28;;;;;;;8.00;1.85;;;;;;;6.24;100.00;99505.72;10207391;28;20045;-68
2022/04/04 17:02:25;;;;;;;11.20;2.50;;;;;;;6.22;100.00;99518.81;10217522;28;20046;-68
2022/04/04 17:07:21;;;;;;;14.88;2.47;;;;;;;6.22;100.00;99502.50;10208395;28;20452;-68
2022/04/04 17:12:18;;;;;;;13.63;2.58;;;;;;;6.22;100.00;99507.94;10206675;28;20406;-68
2022/04/04 17:17:15;;;;;;;18.23;2.80;;;;;;;6.17;100.00;99506.19;10202617;28;20068;-67
2022/04/04 17:22:12;;;;;;;15.70;3.97;;;;;;;6.10;100.00;99512.09;10203156;28;20469;-67
2022/04/04 17:27:09;;;;;;;15.45;2.85;;;;;;;6.10;100.00;99533.81;10188448;28;20063;-66
2022/04/04 17:32:06;;;;;;;16.98;2.50;;;;;;;6.06;100.00;99515.78;10189300;28;20042;-65
2022/04/04 17:37:06;;;;;;;12.32;2.00;;;;;;;6.02;100.00;99523.72;10180978;28;20037;-67
2022/04/04 17:42:03;;;;;;;12.75;2.38;;;;;;;6.01;100.00;99505.88;10207785;28;20100;-67
2022/04/04 17:47:00;;;;;;;9.77;1.42;;;;;;;6.01;100.00;99524.88;10216319;28;20566;-67
2022/04/04 17:51:57;;;;;;;16.70;2.70;;;;;;;6.01;100.00;99518.59;10234157;28;20396;-67
2022/04/04 17:56:57;;;;;;;17.23;2.40;;;;;;;5.99;100.00;99537.94;10229869;28;20516;-68
2022/04/04 18:01:54;;;;;;;18.33;2.63;;;;;;;5.94;100.00;99551.66;10230254;28;20083;-67
2022/04/04 18:06:52;;;;;;;15.38;2.85;;;;;;;5.94;100.00;99576.06;10219179;28;20125;-68
2022/04/04 18:11:50;;;;;;;14.23;2.80;;;;;;;5.94;100.00;99562.50;10230295;28;20135;-69
2022/04/04 18:16:48;;;;;;;18.25;3.00;;;;;;;5.88;100.00;99569.16;10215493;28;20053;-67
2022/04/04 18:21:45;;;;;;;12.73;2.60;;;;;;;5.87;100.00;99578.38;10228654;28;20095;-68
2022/04/04 18:26:42;;;;;;;11.85;2.50;;;;;;;5.82;100.00;99586.69;10225845;28;20068;-69
2022/04/04 18:31:38;;;;;;;22.98;3.20;;;;;;;5.76;100.00;99604.22;10217865;28;20050;-69
2022/04/04 18:36:37;;;;;;;17.88;2.83;;;;;;;5.77;100.00;99613.94;10228900;28;20041;-67
2022/04/04 18:41:34;;;;;;;18.52;2.97;;;;;;;5.67;100.00;99613.09;10229633;28;20547;-68
2022/04/04 18:46:34;;;;;;;21.15;2.65;;;;;;;5.63;100.00;99617.53;10223038;28;20094;-69
2022/04/04 18:51:30;;;;;;;22.58;2.92;;;;;;;5.64;100.00;99629.19;10226384;28;20052;-67
2022/04/04 18:56:27;;;;;;;10.88;2.83;;;;;;;5.57;100.00;99624.22;10212536;28;20053;-68
2022/04/04 19:01:23;;;;;;;7.95;2.00;;;;;;;5.51;100.00;99628.19;10232070;28;20049;-68
2022/04/04 19:06:20;;;;;;;25.10;3.20;;;;;;;5.48;100.00;99636.94;10221370;28;20112;-68
2022/04/04 19:11:17;;;;;;;19.83;3.05;;;;;;;5.45;100.00;99640.25;10231681;28;20057;-68
2022/04/04 19:16:16;;;;;;;13.15;2.58;;;;;;;5.39;100.00;99649.63;10224878;28;20045;-67
2022/04/04 19:21:13;;;;;;;17.80;2.17;;;;;;;5.43;100.00;99639.75;10224898;28;20063;-69
2022/04/04 19:26:10;;;;;;;14.43;2.55;;;;;;;5.41;100.00;99647.41;10205969;28;20046;-68
2022/04/04 19:31:06;;;;;;;21.30;3.30;;;;;;;5.42;100.00;99644.38;10202285;28;20630;-67
2022/04/04 19:36:03;;;;;;;21.48;2.63;;;;;;;5.42;100.00;99647.09;10193348;28;20050;-68
2022/04/04 19:40:59;;;;;;;24.95;3.25;;;;;;;5.46;100.00;99666.25;10212175;28;20129;-66
2022/04/04 19:45:56;;;;;;;12.32;2.03;;;;;;;5.41;100.00;99682.66;10204536;28;20057;-66
2022/04/04 19:50:53;;;;;;;13.73;2.72;;;;;;;5.38;100.00;99680.56;10200579;28;20076;-67
2022/04/04 19:55:51;;;;;;;15.02;2.60;;;;;;;5.38;100.00;99669.72;10199768;28;20427;-66
2022/04/04 20:00:48;;;;;;;20.30;2.65;;;;;;;5.36;100.00;99674.63;10211528;28;20065;-66
2022/04/04 20:05:45;;;;;;;17.60;2.25;;;;;;;5.34;100.00;99682.28;10207289;28;20081;-67
2022/04/04 20:10:42;;;;;;;18.13;2.65;;;;;;;5.34;100.00;99693.09;10207658;28;20792;-68
2022/04/04 20:15:39;;;;;;;15.65;2.72;;;;;;;5.24;100.00;99692.28;10207301;28;20045;-68
2022/04/04 20:20:36;;;;;;;15.43;2.72;;;;;;;5.21;100.00;99697.50;10204333;28;20037;-68
2022/04/04 20:25:32;;;;;;;17.77;3.25;;;;;;;5.21;100.00;99698.28;10208864;28;20534;-67
2022/04/04 20:30:29;;;;;;;11.40;2.90;;;;;;;5.15;100.00;99702.25;10207358;28;20052;-67
2022/04/04 20:35:26;;;;;;;26.02;2.75;;;;;;;5.12;100.00;99700.13;10198794;28;20072;-69
2022/04/04 20:40:24;;;;;;;15.45;2.15;;;;;;;5.02;100.00;99716.63;10213597;28;20054;-68
2022/04/04 20:45:21;;;;;;;12.90;2.22;;;;;;;4.98;100.00;99702.06;10214262;28;20430;-66
2022/04/04 20:50:17;;;;;;;16.33;2.58;;;;;;;4.94;100.00;99706.50;10205902;28;20034;-66
2022/04/04 20:55:14;;;;;;;21.17;2.40;;;;;;;4.90;100.00;99710.91;10211739;28;20079;-68
2022/04/04 21:00:12;;;;;;;17.75;2.55;;;;;;;4.90;100.00;99705.50;10215138;28;20144;-68
2022/04/04 21:05:09;;;;;;;20.60;2.63;;;;;;;4.90;100.00;99703.59;10213770;28;20057;-68
2022/04/04 21:10:06;;;;;;;21.73;2.20;;;;;;;4.98;100.00;99715.63;10211321;28;20053;-67
2022/04/04 21:15:03;;;;;;;17.65;2.67;;;;;;;4.97;100.00;99717.53;10215918;28;20077;-66
2022/04/04 21:20:00;;;;;;;10.85;1.77;;;;;;;4.98;100.00;99726.47;10219142;28;20778;-66
2022/04/04 21:25:01;;;;;;;15.63;2.60;;;;;;;4.97;100.00;99724.88;10211771;28;20672;-67
2022/04/04 21:29:57;;;;;;;21.60;2.60;;;;;;;5.01;100.00;99725.84;10216643;28;20145;-66
2022/04/04 21:34:56;;;;;;;20.77;1.90;;;;;;;5.08;100.00;99734.34;10210643;28;20079;-69
2022/04/04 21:39:52;;;;;;;18.05;2.95;;;;;;;5.11;100.00;99731.06;10222607;28;20041;-67
2022/04/04 21:44:49;;;;;;;24.10;4.07;;;;;;;5.03;100.00;99735.25;10217546;28;20054;-67
2022/04/04 21:49:45;;;;;;;17.50;2.35;;;;;;;5.01;100.00;99747.50;10213641;28;20072;-67
2022/04/04 21:54:42;;;;;;;16.88;2.60;;;;;;;4.94;100.00;99752.53;10218636;28;20128;-65
2022/04/04 21:59:40;;;;;;;25.65;3.22;;;;;;;4.84;100.00;99759.78;10213015;28;20515;-68
2022/04/04 22:04:37;;;;;;;33.17;3.35;;;;;;;4.85;100.00;99763.31;10214769;28;20734;-67
2022/04/04 22:09:34;;;;;;;20.27;2.55;;;;;;;4.77;100.00;99770.22;10208712;28;20112;-68
2022/04/04 22:14:33;;;;;;;26.90;4.05;;;;;;;4.80;100.00;99769.63;10216213;28;20128;-68
2022/04/04 22:19:29;;;;;;;28.67;3.83;;;;;;;4.78;100.00;99774.56;10202336;28;20065;-68
2022/04/04 22:24:26;;;;;;;23.58;2.83;;;;;;;4.72;100.00;99778.44;10205184;28;20071;-67
2022/04/04 22:29:22;;;;;;;18.25;2.40;;;;;;;4.72;100.00;99778.44;10207412;28;20407;-66
2022/04/04 22:34:19;;;;;;;13.95;2.30;;;;;;;4.72;100.00;99783.88;10213477;28;20567;-68
2022/04/04 22:39:16;;;;;;;19.33;2.85;;;;;;;4.68;100.00;99788.28;10216877;28;20073;-68
2022/04/04 22:44:12;;;;;;;18.83;2.50;;;;;;;4.70;100.00;99786.06;10207105;28;20474;-68
2022/04/04 22:49:10;;;;;;;17.00;2.63;;;;;;;4.72;100.00;99786.56;10209879;28;20084;-67
2022/04/04 22:54:07;;;;;;;20.77;2.42;;;;;;;4.65;100.00;99805.13;10206597;28;20057;-66
2022/04/04 22:59:04;;;;;;;20.42;2.50;;;;;;;4.60;100.00;99807.94;10206041;28;20608;-67
2022/04/04 23:04:00;;;;;;;22.33;2.50;;;;;;;4.57;100.00;99819.34;10221489;28;20115;-66